createdAt,value
2017-08-22T00:00:12.733Z,90.80
2017-08-22T00:01:19.578Z,91.21
2017-08-22T00:02:25.497Z,91.57
2017-08-22T00:03:36.749Z,91.69
2017-08-22T00:04:42.824Z,91.81
2017-08-22T00:05:48.841Z,92.03
2017-08-22T00:06:54.876Z,92.35
2017-08-22T00:08:00.996Z,92.02
2017-08-22T00:09:07.005Z,93.40
2017-08-22T00:10:12.858Z,93.36
2017-08-22T00:11:18.924Z,93.24
2017-08-22T00:12:24.973Z,93.38
2017-08-22T00:13:31.073Z,93.30
2017-08-22T00:14:37.109Z,93.45
2017-08-22T00:15:43.131Z,93.32
2017-08-22T00:16:49.175Z,93.72
2017-08-22T00:17:55.243Z,93.80
2017-08-22T00:19:01.286Z,94.00
2017-08-22T00:20:07.294Z,95.00
2017-08-22T00:21:13.336Z,94.82
2017-08-22T00:22:19.361Z,94.73
2017-08-22T00:23:25.387Z,94.24
2017-08-22T00:24:31.435Z,94.76
2017-08-22T00:25:37.462Z,94.37
2017-08-22T00:26:43.472Z,93.74
2017-08-22T00:27:49.507Z,93.96
2017-08-22T00:28:55.542Z,93.74
2017-08-22T00:30:01.604Z,93.63
2017-08-22T00:31:07.438Z,93.96
2017-08-22T00:32:13.474Z,93.94
2017-08-22T00:33:19.506Z,93.99
2017-08-22T00:34:25.537Z,94.05
2017-08-22T00:35:31.625Z,93.80
2017-08-22T00:36:37.694Z,93.58
2017-08-22T00:37:43.704Z,93.77
2017-08-22T00:38:49.752Z,94.26
2017-08-22T00:39:55.771Z,93.99
2017-08-22T00:41:01.868Z,94.10
2017-08-22T00:42:07.187Z,93.73
2017-08-22T00:43:13.206Z,93.62
2017-08-22T00:44:19.229Z,93.31
2017-08-22T00:45:24.878Z,93.41
2017-08-22T00:46:30.929Z,93.51
2017-08-22T00:47:36.958Z,93.73
2017-08-22T00:48:43.026Z,93.73
2017-08-22T00:49:48.350Z,94.22
2017-08-22T00:50:53.645Z,93.94
2017-08-22T00:51:58.783Z,93.59
2017-08-22T00:53:04.790Z,94.25
2017-08-22T00:54:10.519Z,93.33
2017-08-22T00:55:16.547Z,93.48
2017-08-22T00:56:22.589Z,93.30
2017-08-22T00:57:28.648Z,93.18
2017-08-22T00:58:34.679Z,93.41
2017-08-22T00:59:40.711Z,92.96
2017-08-22T01:00:46.709Z,93.87
2017-08-22T01:01:52.542Z,92.79
2017-08-22T01:02:58.229Z,92.91
2017-08-22T01:04:04.264Z,93.15
2017-08-22T01:05:09.650Z,92.73
2017-08-22T01:06:14.966Z,93.01
2017-08-22T01:07:20.441Z,92.64
2017-08-22T01:08:26.516Z,92.43
2017-08-22T01:09:32.516Z,92.66
2017-08-22T01:10:38.164Z,91.84
2017-08-22T01:11:43.840Z,91.70
2017-08-22T01:12:49.342Z,91.67
2017-08-22T01:13:54.678Z,92.30
2017-08-22T01:15:00.781Z,92.39
2017-08-22T01:16:06.855Z,93.16
2017-08-22T01:17:12.672Z,92.41
2017-08-22T01:18:18.736Z,92.70
2017-08-22T01:19:24.463Z,92.41
2017-08-22T01:20:29.597Z,91.68
2017-08-22T01:21:34.948Z,91.68
2017-08-22T01:22:40.426Z,92.05
2017-08-22T01:23:46.441Z,91.83
2017-08-22T01:24:51.850Z,92.86
2017-08-22T01:25:57.161Z,93.07
2017-08-22T01:27:02.295Z,93.02
2017-08-22T01:28:07.950Z,93.35
2017-08-22T01:29:13.256Z,93.16
2017-08-22T01:30:18.628Z,93.37
2017-08-22T01:31:23.918Z,93.24
2017-08-22T01:32:29.592Z,93.24
2017-08-22T01:33:34.697Z,93.71
2017-08-22T01:34:40.364Z,94.14
2017-08-22T01:35:45.773Z,93.76
2017-08-22T01:36:51.401Z,94.00
2017-08-22T01:37:56.712Z,93.97
2017-08-22T01:39:02.052Z,94.34
2017-08-22T01:40:07.175Z,94.21
2017-08-22T01:41:12.512Z,94.32
2017-08-22T01:42:17.821Z,93.82
2017-08-22T01:43:23.131Z,94.07
2017-08-22T01:44:28.790Z,93.91
2017-08-22T01:45:34.810Z,94.13
2017-08-22T01:46:40.883Z,94.22
2017-08-22T01:47:46.899Z,93.90
2017-08-22T01:48:52.931Z,94.14
2017-08-22T01:49:58.966Z,94.35
2017-08-22T01:51:06.211Z,94.61
2017-08-22T01:52:12.703Z,94.76
2017-08-22T01:53:18.772Z,94.75
2017-08-22T01:54:24.980Z,94.71
2017-08-22T01:55:31.029Z,94.86
2017-08-22T01:56:37.051Z,94.35
2017-08-22T01:57:43.133Z,93.94
2017-08-22T01:58:49.195Z,93.31
2017-08-22T01:59:55.259Z,93.33
2017-08-22T02:01:01.299Z,94.11
2017-08-22T02:02:07.111Z,94.74
2017-08-22T02:03:12.973Z,94.76
2017-08-22T02:04:18.982Z,94.71
2017-08-22T02:05:25.007Z,95.23
2017-08-22T02:06:31.047Z,95.57
2017-08-22T02:07:36.907Z,95.43
2017-08-22T02:08:42.780Z,95.31
2017-08-22T02:09:48.797Z,95.25
2017-08-22T02:10:54.821Z,95.04
2017-08-22T02:12:00.868Z,95.49
2017-08-22T02:13:06.913Z,95.44
2017-08-22T02:14:12.957Z,95.30
2017-08-22T02:15:18.450Z,94.64
2017-08-22T02:16:24.498Z,94.00
2017-08-22T02:17:30.571Z,93.68
2017-08-22T02:18:36.642Z,93.24
2017-08-22T02:19:42.651Z,92.96
2017-08-22T02:20:48.694Z,93.13
2017-08-22T02:21:54.522Z,93.67
2017-08-22T02:23:00.571Z,93.54
2017-08-22T02:24:06.658Z,93.76
2017-08-22T02:25:12.689Z,94.57
2017-08-22T02:26:18.719Z,95.26
2017-08-22T02:27:25.262Z,95.42
2017-08-22T02:28:31.288Z,95.77
2017-08-22T02:29:37.365Z,95.99
2017-08-22T02:30:43.432Z,95.84
2017-08-22T02:31:49.469Z,96.15
2017-08-22T02:32:55.500Z,95.99
2017-08-22T02:34:01.504Z,95.96
2017-08-22T02:35:07.550Z,96.02
2017-08-22T02:36:13.623Z,94.69
2017-08-22T02:37:19.646Z,94.05
2017-08-22T02:38:25.693Z,94.33
2017-08-22T02:39:31.758Z,94.67
2017-08-22T02:40:37.807Z,95.65
2017-08-22T02:41:43.831Z,95.80
2017-08-22T02:42:49.840Z,96.20
2017-08-22T02:43:55.893Z,96.06
2017-08-22T02:45:01.932Z,96.53
2017-08-22T02:46:08.041Z,96.07
2017-08-22T02:47:14.082Z,96.32
2017-08-22T02:48:20.109Z,96.91
2017-08-22T02:49:26.162Z,96.75
2017-08-22T02:50:32.192Z,96.90
2017-08-22T02:51:38.320Z,96.71
2017-08-22T02:52:44.361Z,96.22
2017-08-22T02:53:50.407Z,96.83
2017-08-22T02:54:56.496Z,97.11
2017-08-22T02:56:02.544Z,97.21
2017-08-22T02:57:08.668Z,97.12
2017-08-22T02:58:14.505Z,97.45
2017-08-22T02:59:20.532Z,96.87
2017-08-22T03:00:26.566Z,96.46
2017-08-22T03:01:32.669Z,96.37
2017-08-22T03:02:38.739Z,95.69
2017-08-22T03:03:44.753Z,95.37
2017-08-22T03:04:50.797Z,95.03
2017-08-22T03:05:56.829Z,95.36
2017-08-22T03:07:02.873Z,95.99
2017-08-22T03:08:09.049Z,96.25
2017-08-22T03:09:15.130Z,95.67
2017-08-22T03:10:21.252Z,95.83
2017-08-22T03:11:27.308Z,95.83
2017-08-22T03:12:33.385Z,96.54
2017-08-22T03:13:39.471Z,96.95
2017-08-22T03:14:45.550Z,97.41
2017-08-22T03:15:51.572Z,97.92
2017-08-22T03:16:57.626Z,97.92
2017-08-22T03:18:03.754Z,98.27
2017-08-22T03:19:09.869Z,98.35
2017-08-22T03:20:15.917Z,98.49
2017-08-22T03:21:21.983Z,98.50
2017-08-22T03:22:28.025Z,98.73
2017-08-22T03:23:34.138Z,98.54
2017-08-22T03:24:40.170Z,98.45
2017-08-22T03:25:46.190Z,98.78
2017-08-22T03:26:52.256Z,98.51
2017-08-22T03:27:58.134Z,98.90
2017-08-22T03:29:04.183Z,99.63
2017-08-22T03:30:10.289Z,99.68
2017-08-22T03:31:16.323Z,99.58
2017-08-22T03:32:22.328Z,99.37
2017-08-22T03:33:28.394Z,99.22
2017-08-22T03:34:34.457Z,99.27
2017-08-22T03:35:40.483Z,99.03
2017-08-22T03:36:46.590Z,98.81
2017-08-22T03:37:52.622Z,98.54
2017-08-22T03:38:58.677Z,98.26
2017-08-22T03:40:04.779Z,98.01
2017-08-22T03:41:10.813Z,97.82
2017-08-22T03:42:16.846Z,97.89
2017-08-22T03:43:22.866Z,97.91
2017-08-22T03:44:28.948Z,97.79
2017-08-22T03:45:34.978Z,98.46
2017-08-22T03:46:41.020Z,98.57
2017-08-22T03:47:47.066Z,98.91
2017-08-22T03:48:53.148Z,98.75
2017-08-22T03:49:59.210Z,98.71
2017-08-22T03:51:06.152Z,98.45
2017-08-22T03:52:12.186Z,98.40
2017-08-22T03:53:18.242Z,97.70
2017-08-22T03:54:24.286Z,97.18
2017-08-22T03:55:30.348Z,96.61
2017-08-22T03:56:35.854Z,95.82
2017-08-22T03:57:41.901Z,95.60
2017-08-22T03:58:47.988Z,95.21
2017-08-22T03:59:54.078Z,94.76
2017-08-22T04:01:00.197Z,94.95
2017-08-22T04:02:06.230Z,94.80
2017-08-22T04:03:12.268Z,94.94
2017-08-22T04:04:18.334Z,94.62
2017-08-22T04:05:24.376Z,94.55
2017-08-22T04:06:30.526Z,94.51
2017-08-22T04:07:36.761Z,94.95
2017-08-22T04:08:42.929Z,95.06
2017-08-22T04:09:49.147Z,95.78
2017-08-22T04:10:55.721Z,96.17
2017-08-22T04:12:02.206Z,96.51
2017-08-22T04:13:08.213Z,96.67
2017-08-22T04:14:14.246Z,97.03
2017-08-22T04:15:20.429Z,97.25
2017-08-22T04:16:26.533Z,98.03
2017-08-22T04:17:32.792Z,98.28
2017-08-22T04:18:38.703Z,98.02
2017-08-22T04:19:44.786Z,97.41
2017-08-22T04:20:50.834Z,96.48
2017-08-22T04:21:56.866Z,96.00
2017-08-22T04:23:02.954Z,95.84
2017-08-22T04:24:09.101Z,95.27
2017-08-22T04:25:15.138Z,95.12
2017-08-22T04:26:21.210Z,94.99
2017-08-22T04:27:27.282Z,95.13
2017-08-22T04:28:33.327Z,95.54
2017-08-22T04:29:39.373Z,95.23
2017-08-22T04:30:45.448Z,94.95
2017-08-22T04:31:51.510Z,94.91
2017-08-22T04:32:57.553Z,95.42
2017-08-22T04:34:03.644Z,95.33
2017-08-22T04:35:09.803Z,94.98
2017-08-22T04:36:15.856Z,95.31
2017-08-22T04:37:21.974Z,95.32
2017-08-22T04:38:28.068Z,94.97
2017-08-22T04:39:34.146Z,95.19
2017-08-22T04:40:40.230Z,95.74
2017-08-22T04:41:46.271Z,95.83
2017-08-22T04:42:52.334Z,95.68
2017-08-22T04:43:58.390Z,95.30
2017-08-22T04:45:04.377Z,95.14
2017-08-22T04:46:10.522Z,95.52
2017-08-22T04:47:16.657Z,96.45
2017-08-22T04:48:22.756Z,97.19
2017-08-22T04:49:28.857Z,97.09
2017-08-22T04:50:34.961Z,98.22
2017-08-22T04:51:40.989Z,98.26
2017-08-22T04:52:47.047Z,97.78
2017-08-22T04:53:53.119Z,97.66
2017-08-22T04:54:59.182Z,96.89
2017-08-22T04:56:05.259Z,95.79
2017-08-22T04:57:11.335Z,95.31
2017-08-22T04:58:17.419Z,95.70
2017-08-22T04:59:23.456Z,95.67
2017-08-22T05:00:29.518Z,95.38
2017-08-22T05:01:35.570Z,95.83
2017-08-22T05:02:41.608Z,95.74
2017-08-22T05:03:47.648Z,95.29
2017-08-22T05:04:53.712Z,95.60
2017-08-22T05:05:59.789Z,95.81
2017-08-22T05:07:05.845Z,95.85
2017-08-22T05:08:11.909Z,95.98
2017-08-22T05:09:17.949Z,96.10
2017-08-22T05:10:24.038Z,95.82
2017-08-22T05:11:30.148Z,95.15
2017-08-22T05:12:36.231Z,95.45
2017-08-22T05:13:42.266Z,95.71
2017-08-22T05:14:48.324Z,95.90
2017-08-22T05:15:54.363Z,95.08
2017-08-22T05:17:00.478Z,95.19
2017-08-22T05:18:06.548Z,95.18
2017-08-22T05:19:12.600Z,95.30
2017-08-22T05:20:18.649Z,95.54
2017-08-22T05:21:24.697Z,94.77
2017-08-22T05:22:30.801Z,94.72
2017-08-22T05:23:36.862Z,93.90
2017-08-22T05:24:42.928Z,93.61
2017-08-22T05:25:48.962Z,93.13
2017-08-22T05:26:55.033Z,93.23
2017-08-22T05:28:01.130Z,93.44
2017-08-22T05:29:07.174Z,93.55
2017-08-22T05:30:13.209Z,93.96
2017-08-22T05:31:19.272Z,94.42
2017-08-22T05:32:25.287Z,94.18
2017-08-22T05:33:31.359Z,93.79
2017-08-22T05:34:37.402Z,93.70
2017-08-22T05:35:43.462Z,93.06
2017-08-22T05:36:49.503Z,93.03
2017-08-22T05:37:55.599Z,92.74
2017-08-22T05:39:01.686Z,92.87
2017-08-22T05:40:07.536Z,92.75
2017-08-22T05:41:13.574Z,91.86
2017-08-22T05:42:19.605Z,92.04
2017-08-22T05:43:25.688Z,92.21
2017-08-22T05:44:31.967Z,92.24
2017-08-22T05:45:37.988Z,91.88
2017-08-22T05:46:44.016Z,92.23
2017-08-22T05:47:50.050Z,91.81
2017-08-22T05:48:56.125Z,90.33
2017-08-22T05:50:02.146Z,89.92
2017-08-22T05:51:08.229Z,90.36
2017-08-22T05:52:14.254Z,90.59
2017-08-22T05:53:20.313Z,91.00
2017-08-22T05:54:26.412Z,91.35
2017-08-22T05:55:32.841Z,90.77
2017-08-22T05:56:39.147Z,91.05
2017-08-22T05:57:45.182Z,90.42
2017-08-22T05:58:51.192Z,90.67
2017-08-22T05:59:57.293Z,90.17
2017-08-22T06:01:03.373Z,88.71
2017-08-22T06:02:09.482Z,88.28
2017-08-22T06:03:15.525Z,87.54
2017-08-22T06:04:21.611Z,88.44
2017-08-22T06:05:27.675Z,87.79
2017-08-22T06:06:33.690Z,88.19
2017-08-22T06:07:39.720Z,88.12
2017-08-22T06:08:45.786Z,87.82
2017-08-22T11:32:48.964Z,56.73
2017-08-22T11:33:55.330Z,57.41
2017-08-22T11:35:01.335Z,55.96
2017-08-22T11:36:08.307Z,55.18
2017-08-22T11:37:14.401Z,56.70
2017-08-22T11:38:21.302Z,56.85
2017-08-22T11:39:27.432Z,56.69
2017-08-22T11:40:33.490Z,57.58
2017-08-22T11:41:39.564Z,56.95
2017-08-22T11:42:45.650Z,56.19
2017-08-22T11:43:51.724Z,56.87
2017-08-22T11:44:57.810Z,57.77
2017-08-22T11:46:04.051Z,58.58
2017-08-22T11:47:10.240Z,58.27
2017-08-22T11:48:16.353Z,58.86
2017-08-22T11:49:22.401Z,58.48
2017-08-22T11:50:28.485Z,55.61
2017-08-22T11:51:34.537Z,55.03
2017-08-22T11:52:40.414Z,55.58
2017-08-22T11:53:46.401Z,55.07
2017-08-22T11:54:52.530Z,56.10
2017-08-22T11:55:58.620Z,55.42
2017-08-22T11:57:04.726Z,54.81
2017-08-22T11:58:11.497Z,52.81
2017-08-22T11:59:17.626Z,53.54
2017-08-22T12:00:24.790Z,53.79
2017-08-22T12:01:31.957Z,52.12
2017-08-22T12:02:42.873Z,52.00
2017-08-22T12:03:49.475Z,50.88
2017-08-22T12:04:55.603Z,52.83
2017-08-22T12:06:02.001Z,50.93
2017-08-22T12:07:08.294Z,52.01
2017-08-22T12:08:14.642Z,52.96
2017-08-22T12:09:20.695Z,51.72
2017-08-22T12:10:26.815Z,51.49
2017-08-22T12:11:32.889Z,51.76
2017-08-22T12:12:38.943Z,51.69
2017-08-22T12:13:44.995Z,53.40
2017-08-22T12:14:52.080Z,52.36
2017-08-22T12:15:58.241Z,53.24
2017-08-22T12:17:04.297Z,53.38
2017-08-22T12:18:10.270Z,52.06
2017-08-22T12:19:16.182Z,53.84
2017-08-22T12:20:22.640Z,52.94
2017-08-22T12:21:29.878Z,55.08
2017-08-22T12:22:36.927Z,53.32
2017-08-22T12:23:44.831Z,54.07
2017-08-22T12:24:51.670Z,53.94
2017-08-22T12:25:59.134Z,52.17
2017-08-22T12:27:06.551Z,53.47
2017-08-22T12:28:13.729Z,49.84
2017-08-22T12:29:20.981Z,51.15
2017-08-22T12:30:28.413Z,51.30
2017-08-22T12:31:36.897Z,49.47
2017-08-22T12:32:46.619Z,49.79
2017-08-22T12:33:54.128Z,49.79
2017-08-22T12:35:03.532Z,50.23
2017-08-22T12:36:10.934Z,51.48
2017-08-22T12:37:18.277Z,49.31
2017-08-22T12:38:25.595Z,49.70
2017-08-22T12:39:32.883Z,50.07
2017-08-22T12:40:40.871Z,48.38
2017-08-22T12:41:48.264Z,50.44
2017-08-22T12:42:55.644Z,49.46
2017-08-22T12:44:03.095Z,50.44
2017-08-22T12:45:10.719Z,52.02
2017-08-22T12:46:17.706Z,52.49
2017-08-22T12:47:25.293Z,50.03
2017-08-22T12:48:34.424Z,51.09
2017-08-22T12:49:43.106Z,51.80
2017-08-22T12:50:51.518Z,52.87
2017-08-22T12:52:01.430Z,51.89
2017-08-22T12:53:08.497Z,54.13
2017-08-22T12:54:15.015Z,53.89
2017-08-22T12:55:20.735Z,53.63
2017-08-22T12:56:32.141Z,53.38
2017-08-22T12:57:37.653Z,52.71
2017-08-22T12:58:44.034Z,52.64
2017-08-22T12:59:50.450Z,53.17
2017-08-22T13:00:59.318Z,50.84
2017-08-22T13:02:08.212Z,50.54
2017-08-22T13:03:16.122Z,50.38
2017-08-22T13:04:23.683Z,51.35
2017-08-22T13:05:31.903Z,49.07
2017-08-22T13:06:42.663Z,49.88
2017-08-22T13:07:51.664Z,48.48
2017-08-22T13:08:58.852Z,49.40
2017-08-22T13:10:06.319Z,46.44
2017-08-22T13:11:15.644Z,45.48
2017-08-22T13:12:23.332Z,45.58
2017-08-22T13:13:33.925Z,47.35
2017-08-22T13:14:40.858Z,48.45
2017-08-22T13:15:46.923Z,49.50
2017-08-22T13:16:55.324Z,46.00
2017-08-22T13:18:05.639Z,47.03
2017-08-22T13:19:13.872Z,46.60
2017-08-22T13:20:21.640Z,49.34
2017-08-22T13:21:28.120Z,46.10
2017-08-22T13:22:34.423Z,47.72
2017-08-22T13:23:40.605Z,47.51
2017-08-22T13:24:46.722Z,48.63
2017-08-22T13:25:53.048Z,48.81
2017-08-22T13:26:59.260Z,46.86
2017-08-22T13:28:05.358Z,46.60
2017-08-22T13:29:12.060Z,46.71
2017-08-22T13:30:18.289Z,46.17
2017-08-22T13:31:24.403Z,44.95
2017-08-22T13:32:30.581Z,46.33
2017-08-22T13:33:36.822Z,43.94
2017-08-22T13:34:43.036Z,45.18
2017-08-22T13:35:49.203Z,45.94
2017-08-22T13:36:56.093Z,45.05
2017-08-22T13:38:02.176Z,46.26
2017-08-22T13:39:10.357Z,44.53
2017-08-22T13:40:19.097Z,43.66
2017-08-22T13:41:28.315Z,45.51
2017-08-22T13:42:35.434Z,47.42
2017-08-22T13:43:41.596Z,44.02
2017-08-22T13:44:47.803Z,45.08
2017-08-22T13:45:54.717Z,47.73
2017-08-22T13:47:04.152Z,46.03
2017-08-22T13:48:13.002Z,45.33
2017-08-22T13:49:21.005Z,44.73
2017-08-22T13:50:28.862Z,45.28
2017-08-22T13:51:36.631Z,47.39
2017-08-22T13:52:43.808Z,45.38
2017-08-22T13:53:52.943Z,46.76
2017-08-22T13:55:02.603Z,47.63
2017-08-22T13:56:10.917Z,46.66
2017-08-22T13:57:18.896Z,47.51
2017-08-22T13:58:28.047Z,47.75
2017-08-22T13:59:35.404Z,48.21
2017-08-22T14:00:42.783Z,48.92
2017-08-22T14:01:50.373Z,49.03
2017-08-22T14:02:57.221Z,49.99
2017-08-22T14:04:04.325Z,49.40
2017-08-22T14:05:10.663Z,50.15
2017-08-22T14:06:18.391Z,46.36
2017-08-22T14:07:28.085Z,47.16
2017-08-22T14:08:38.417Z,48.50
2017-08-22T14:09:47.986Z,48.35
2017-08-22T14:10:54.648Z,48.58
2017-08-22T14:12:01.161Z,47.94
2017-08-22T14:13:08.147Z,47.03
2017-08-22T14:14:15.672Z,45.97
2017-08-22T14:15:22.091Z,46.57
2017-08-22T14:16:28.603Z,45.87
2017-08-22T14:17:34.884Z,47.20
2017-08-22T14:18:43.026Z,46.55
2017-08-22T14:19:51.605Z,45.73
2017-08-22T14:20:58.366Z,45.55
2017-08-22T14:22:04.969Z,46.18
2017-08-22T14:23:11.105Z,45.56
2017-08-22T14:24:17.287Z,46.11
2017-08-22T14:25:25.380Z,45.24
2017-08-22T14:26:31.548Z,44.59
2017-08-22T14:27:37.703Z,45.82
2017-08-22T14:28:44.017Z,46.39
2017-08-22T14:29:50.245Z,46.63
2017-08-22T14:30:57.133Z,47.29
2017-08-22T14:32:03.361Z,45.63
2017-08-22T14:33:09.609Z,47.56
2017-08-22T14:34:16.096Z,45.27
2017-08-22T14:35:22.485Z,47.43
2017-08-22T14:36:28.602Z,47.55
2017-08-22T14:37:34.714Z,45.76
2017-08-22T14:38:40.492Z,47.60
2017-08-22T14:39:46.603Z,48.11
2017-08-22T14:40:53.477Z,48.15
2017-08-22T14:41:59.847Z,46.45
2017-08-22T14:43:06.003Z,46.94
2017-08-22T14:44:12.168Z,46.93
2017-08-22T14:45:19.568Z,45.44
2017-08-22T14:46:25.676Z,45.88
2017-08-22T14:47:33.798Z,47.49
2017-08-22T14:48:40.082Z,47.54
2017-08-22T14:49:46.261Z,47.18
2017-08-22T14:50:53.069Z,48.68
2017-08-22T14:51:59.319Z,49.50
2017-08-22T14:53:05.544Z,51.07
2017-08-22T14:54:11.633Z,50.91
2017-08-22T14:55:17.745Z,52.45
2017-08-22T14:56:23.968Z,50.14
2017-08-22T14:57:30.985Z,50.10
2017-08-22T14:58:37.212Z,50.63
2017-08-22T14:59:43.214Z,50.67
2017-08-22T15:00:49.287Z,50.80
2017-08-22T15:01:55.420Z,51.42
2017-08-22T15:03:01.529Z,50.76
2017-08-22T15:04:07.746Z,49.69
2017-08-22T15:05:13.727Z,51.39
2017-08-22T15:06:19.861Z,50.95
2017-08-22T15:07:26.072Z,50.53
2017-08-22T15:08:32.133Z,50.12
2017-08-22T15:09:38.281Z,49.43
2017-08-22T15:10:46.187Z,50.41
2017-08-22T15:11:53.841Z,51.52
2017-08-22T15:13:00.039Z,50.40
2017-08-22T15:14:06.202Z,49.13
2017-08-22T15:15:12.398Z,50.34
2017-08-22T15:16:21.099Z,49.45
2017-08-22T15:17:30.879Z,48.77
2017-08-22T15:18:38.855Z,48.50
2017-08-22T15:19:47.354Z,49.60
2017-08-22T15:20:54.765Z,49.97
2017-08-22T15:22:01.866Z,49.86
2017-08-22T15:23:08.689Z,50.16
2017-08-22T15:24:15.850Z,50.35
2017-08-22T15:25:22.811Z,49.75
2017-08-22T15:26:28.576Z,50.91
2017-08-22T15:27:36.094Z,51.40
2017-08-22T15:28:44.508Z,51.48
2017-08-22T15:29:51.993Z,51.44
2017-08-22T15:30:59.815Z,50.00
2017-08-22T15:32:09.075Z,51.23
2017-08-22T15:33:20.230Z,51.13
2017-08-22T15:34:26.589Z,50.48
2017-08-22T15:35:34.144Z,50.28
2017-08-22T15:36:41.198Z,49.53
2017-08-22T15:37:47.246Z,49.59
2017-08-22T15:38:53.300Z,51.04
2017-08-22T15:39:59.935Z,50.97
2017-08-22T15:41:05.986Z,50.49
2017-08-22T15:42:12.472Z,49.19
2017-08-22T15:43:18.556Z,49.94
2017-08-22T15:44:24.727Z,51.18
2017-08-22T15:45:35.304Z,51.03
2017-08-22T15:46:44.512Z,46.81
2017-08-22T15:47:53.245Z,46.81
2017-08-22T15:49:00.820Z,46.17
2017-08-22T15:50:09.459Z,46.11
2017-08-22T15:51:16.046Z,47.52
2017-08-22T15:52:22.150Z,49.70
2017-08-22T15:53:28.496Z,47.84
2017-08-22T15:54:34.621Z,47.12
2017-08-22T15:55:40.748Z,46.41
2017-08-22T15:56:49.901Z,45.28
2017-08-22T15:57:57.432Z,45.02
2017-08-22T15:59:05.796Z,43.42
2017-08-22T16:00:13.024Z,42.76
2017-08-22T16:01:22.445Z,42.54
2017-08-22T16:02:29.506Z,43.07
2017-08-22T16:03:38.920Z,44.69
2017-08-22T16:04:46.573Z,42.68
2017-08-22T16:05:54.378Z,42.15
2017-08-22T16:07:02.588Z,40.67
2017-08-22T16:08:09.449Z,40.74
2017-08-22T16:09:15.593Z,42.35
2017-08-22T16:10:21.777Z,43.77
2017-08-22T16:11:28.180Z,43.64
2017-08-22T16:12:34.440Z,44.12
2017-08-22T16:13:40.690Z,45.74
2017-08-22T16:14:46.891Z,45.97
2017-08-22T16:15:52.999Z,46.29
2017-08-22T16:16:59.330Z,46.63
2017-08-22T16:18:06.167Z,47.01
2017-08-22T16:19:12.425Z,46.32
2017-08-22T16:20:18.582Z,45.93
2017-08-22T16:21:24.794Z,45.35
2017-08-22T16:22:30.978Z,45.31
2017-08-22T16:23:37.134Z,46.21
2017-08-22T16:24:43.685Z,45.97
2017-08-22T16:25:49.751Z,46.96
2017-08-22T16:26:55.875Z,47.36
2017-08-22T16:28:02.129Z,48.10
2017-08-22T16:29:08.265Z,47.33
2017-08-22T16:30:13.645Z,47.64
2017-08-22T16:31:19.691Z,46.97
2017-08-22T16:32:26.800Z,46.57
2017-08-22T16:33:33.174Z,46.76
2017-08-22T16:34:42.651Z,46.67
2017-08-22T16:35:51.408Z,46.37
2017-08-22T16:37:01.299Z,46.77
2017-08-22T16:38:10.146Z,46.79
2017-08-22T16:39:19.442Z,47.64
2017-08-22T16:40:27.830Z,47.27
2017-08-22T16:41:37.372Z,49.10
2017-08-22T16:42:46.954Z,49.17
2017-08-22T16:43:57.441Z,49.43
2017-08-22T16:45:05.801Z,49.07
2017-08-22T16:46:11.766Z,48.16
2017-08-22T16:47:18.986Z,48.33
2017-08-22T16:48:24.815Z,49.71
2017-08-22T16:49:31.352Z,50.02
2017-08-22T16:50:37.478Z,49.55
2017-08-22T16:51:44.363Z,50.05
2017-08-22T16:52:50.501Z,49.51
2017-08-22T16:53:56.709Z,49.79
2017-08-22T16:55:03.811Z,51.93
2017-08-22T16:56:13.423Z,51.47
2017-08-22T16:57:26.149Z,52.21
2017-08-22T16:58:32.216Z,51.46
2017-08-22T16:59:38.575Z,51.00
2017-08-22T17:00:45.615Z,50.13
2017-08-22T17:01:53.116Z,50.45
2017-08-22T17:03:00.431Z,51.21
2017-08-22T17:04:06.546Z,51.67
2017-08-22T17:05:13.065Z,51.77
2017-08-22T17:06:19.713Z,50.55
2017-08-22T17:07:26.042Z,50.04
2017-08-22T17:08:32.592Z,50.65
2017-08-22T17:09:39.210Z,49.96
2017-08-22T17:10:45.386Z,50.79
2017-08-22T17:11:51.670Z,51.30
2017-08-22T17:12:57.846Z,49.95
2017-08-22T17:14:03.938Z,49.74
2017-08-22T17:15:10.111Z,49.84
2017-08-22T17:16:18.275Z,50.32
2017-08-22T17:17:27.065Z,50.19
2017-08-22T17:18:36.289Z,50.93
2017-08-22T17:19:43.617Z,51.63
2017-08-22T17:20:49.793Z,51.05
2017-08-22T17:21:56.071Z,49.63
2017-08-22T17:23:02.300Z,50.68
2017-08-22T17:24:08.392Z,51.89
2017-08-22T17:25:14.862Z,51.94
2017-08-22T17:26:21.778Z,52.59
2017-08-22T17:27:28.206Z,51.60
2017-08-22T17:28:35.283Z,51.97
2017-08-22T17:29:42.225Z,50.77
2017-08-22T17:30:48.978Z,52.52
2017-08-22T17:31:55.684Z,51.58
2017-08-22T17:33:01.812Z,51.92
2017-08-22T17:34:07.981Z,52.75
2017-08-22T17:35:14.562Z,52.64
2017-08-22T17:36:20.967Z,52.85
2017-08-22T17:37:27.390Z,52.18
2017-08-22T17:38:34.061Z,51.73
2017-08-22T17:39:40.270Z,52.42
2017-08-22T17:40:47.456Z,52.77
2017-08-22T17:41:53.802Z,52.28
2017-08-22T17:43:00.089Z,52.65
2017-08-22T17:44:06.426Z,53.08
2017-08-22T17:45:12.780Z,53.70
2017-08-22T17:46:19.202Z,53.03
2017-08-22T17:47:25.497Z,52.61
2017-08-22T17:48:32.097Z,53.56
2017-08-22T17:49:39.218Z,53.09
2017-08-22T17:50:45.380Z,52.83
2017-08-22T17:51:52.280Z,54.04
2017-08-22T17:52:58.605Z,54.50
2017-08-22T17:54:04.783Z,56.97
2017-08-22T17:55:11.592Z,55.79
2017-08-22T17:56:18.021Z,55.69
2017-08-22T17:57:24.982Z,56.30
2017-08-22T17:58:31.491Z,55.97
2017-08-22T17:59:38.346Z,55.45
2017-08-22T18:00:45.172Z,56.00
2017-08-22T18:01:52.214Z,57.21
2017-08-22T18:02:58.523Z,58.89
2017-08-22T18:04:04.997Z,58.79
2017-08-22T18:05:11.186Z,59.36
2017-08-22T18:06:18.605Z,60.24
2017-08-22T18:07:24.995Z,60.67
2017-08-22T18:08:31.878Z,60.55
2017-08-22T18:09:39.607Z,61.16
2017-08-22T18:10:46.241Z,63.17
2017-08-22T18:11:53.996Z,63.26
2017-08-22T18:13:01.019Z,62.71
2017-08-22T18:14:07.011Z,64.75
2017-08-22T18:15:13.833Z,63.03
2017-08-22T18:16:20.176Z,64.60
2017-08-22T18:17:27.797Z,66.16
2017-08-22T18:18:34.293Z,65.12
2017-08-22T18:19:40.391Z,64.54
2017-08-22T18:20:46.619Z,65.71
2017-08-22T18:21:53.114Z,65.64
2017-08-22T18:22:59.808Z,68.81
2017-08-22T18:24:06.350Z,69.77
2017-08-22T18:25:13.120Z,68.13
2017-08-22T18:26:20.402Z,67.35
2017-08-22T18:27:27.111Z,67.57
2017-08-22T18:28:33.545Z,70.08
2017-08-22T18:29:40.286Z,69.76
2017-08-22T18:30:46.768Z,68.95
2017-08-22T18:31:53.694Z,73.49
2017-08-22T18:33:00.100Z,72.05
2017-08-22T18:34:07.383Z,72.66
2017-08-22T18:35:14.991Z,71.62
2017-08-22T18:36:21.988Z,72.28
2017-08-22T18:37:28.697Z,71.81
2017-08-22T18:38:35.079Z,73.29
2017-08-22T18:39:41.794Z,73.47
2017-08-22T18:40:49.269Z,72.98
2017-08-22T18:41:55.987Z,73.27
2017-08-22T18:43:02.402Z,73.20
2017-08-22T18:44:08.511Z,73.05
2017-08-22T18:45:14.903Z,73.11
2017-08-22T18:46:22.078Z,74.45
2017-08-22T18:47:28.396Z,73.35
2017-08-22T18:48:38.115Z,72.97
2017-08-22T18:49:46.700Z,72.35
2017-08-22T18:50:55.696Z,72.56
2017-08-22T18:52:03.315Z,73.53
2017-08-22T18:53:12.615Z,73.25
2017-08-22T18:54:19.050Z,73.63
2017-08-22T18:55:25.340Z,74.35
2017-08-22T18:56:34.299Z,74.34
2017-08-22T18:57:42.249Z,74.52
2017-08-22T18:58:49.779Z,74.46
2017-08-22T18:59:57.794Z,74.72
2017-08-22T19:01:05.854Z,76.46
2017-08-22T19:02:13.578Z,75.44
2017-08-22T19:03:21.428Z,75.84
2017-08-22T19:04:27.510Z,75.82
2017-08-22T19:05:33.751Z,75.97
2017-08-22T19:06:42.230Z,77.46
2017-08-22T19:07:49.362Z,77.64
2017-08-22T19:08:56.876Z,76.84
2017-08-22T19:10:06.428Z,76.82
2017-08-22T19:11:14.537Z,76.11
2017-08-22T19:12:24.020Z,75.78
2017-08-22T19:13:33.772Z,75.46
2017-08-22T19:14:42.500Z,73.40
2017-08-22T19:15:50.884Z,74.99
2017-08-22T19:16:58.992Z,75.66
2017-08-22T19:18:07.785Z,76.03
2017-08-22T19:19:16.674Z,75.92
2017-08-22T19:20:24.950Z,76.37
2017-08-22T19:21:33.512Z,77.68
2017-08-22T19:22:41.963Z,77.83
2017-08-22T19:23:50.463Z,77.09
2017-08-22T19:24:58.449Z,77.78
2017-08-22T19:26:08.212Z,77.86
2017-08-22T19:27:16.357Z,78.05
2017-08-22T19:28:25.000Z,77.96
2017-08-22T19:29:32.928Z,77.97
2017-08-22T19:30:41.526Z,78.84
2017-08-22T19:31:50.268Z,78.92
2017-08-22T19:33:00.446Z,79.25
2017-08-22T19:34:09.498Z,79.39
2017-08-22T19:35:19.456Z,80.86
2017-08-22T19:36:27.762Z,78.88
2017-08-22T19:37:37.108Z,77.66
2017-08-22T19:38:46.003Z,77.87
2017-08-22T19:39:55.828Z,78.31
2017-08-22T19:41:04.692Z,78.33